sensor_id;sensor_type;location;lat;lon;timestamp;P1;durP1;ratioP1;P2;durP2;ratioP2
68176;SDS011;56478;50.982;7.032;2022-10-16T00:00:53;3.13;;;2.92;;
68176;SDS011;56478;50.982;7.032;2022-10-16T00:03:18;4.45;;;2.75;;
68176;SDS011;56478;50.982;7.032;2022-10-16T00:05:44;7.15;;;2.80;;
68176;SDS011;56478;50.982;7.032;2022-10-16T00:08:12;4.78;;;2.80;;
68176;SDS011;56478;50.982;7.032;2022-10-16T00:13:04;4.05;;;3.30;;
68176;SDS011;56478;50.982;7.032;2022-10-16T00:15:34;3.03;;;2.65;;
68176;SDS011;56478;50.982;7.032;2022-10-16T00:18:04;5.10;;;3.00;;
68176;SDS011;56478;50.982;7.032;2022-10-16T00:20:33;2.80;;;2.60;;
68176;SDS011;56478;50.982;7.032;2022-10-16T00:22:59;3.13;;;2.30;;
68176;SDS011;56478;50.982;7.032;2022-10-16T00:25:24;2.92;;;2.42;;
68176;SDS011;56478;50.982;7.032;2022-10-16T00:27:50;2.47;;;2.28;;
68176;SDS011;56478;50.982;7.032;2022-10-16T00:30:16;2.58;;;2.38;;
68176;SDS011;56478;50.982;7.032;2022-10-16T00:32:41;4.78;;;2.60;;
68176;SDS011;56478;50.982;7.032;2022-10-16T00:35:07;3.22;;;2.60;;
68176;SDS011;56478;50.982;7.032;2022-10-16T00:37:32;2.60;;;2.40;;
68176;SDS011;56478;50.982;7.032;2022-10-16T00:39:58;2.38;;;2.17;;
68176;SDS011;56478;50.982;7.032;2022-10-16T00:42:23;3.75;;;2.20;;
68176;SDS011;56478;50.982;7.032;2022-10-16T00:47:19;2.40;;;2.20;;
68176;SDS011;56478;50.982;7.032;2022-10-16T00:50:08;2.67;;;2.20;;
68176;SDS011;56478;50.982;7.032;2022-10-16T00:55:04;3.30;;;2.30;;
68176;SDS011;56478;50.982;7.032;2022-10-16T00:57:31;3.03;;;2.70;;
68176;SDS011;56478;50.982;7.032;2022-10-16T00:59:57;5.22;;;2.67;;
68176;SDS011;56478;50.982;7.032;2022-10-16T01:02:24;5.63;;;2.50;;
68176;SDS011;56478;50.982;7.032;2022-10-16T01:04:50;4.40;;;2.55;;
68176;SDS011;56478;50.982;7.032;2022-10-16T01:10:07;2.72;;;2.45;;
68176;SDS011;56478;50.982;7.032;2022-10-16T01:15:54;9.18;;;3.38;;
68176;SDS011;56478;50.982;7.032;2022-10-16T01:18:30;5.85;;;3.15;;
68176;SDS011;56478;50.982;7.032;2022-10-16T01:21:04;3.88;;;2.80;;
68176;SDS011;56478;50.982;7.032;2022-10-16T01:29:15;4.18;;;2.63;;
68176;SDS011;56478;50.982;7.032;2022-10-16T01:31:47;4.63;;;3.00;;
68176;SDS011;56478;50.982;7.032;2022-10-16T01:34:19;7.65;;;2.60;;
68176;SDS011;56478;50.982;7.032;2022-10-16T01:36:53;3.78;;;2.67;;
68176;SDS011;56478;50.982;7.032;2022-10-16T01:39:23;3.50;;;2.58;;
68176;SDS011;56478;50.982;7.032;2022-10-16T01:42:16;2.72;;;2.50;;
68176;SDS011;56478;50.982;7.032;2022-10-16T01:44:45;3.85;;;2.40;;
68176;SDS011;56478;50.982;7.032;2022-10-16T01:47:13;7.13;;;2.80;;
68176;SDS011;56478;50.982;7.032;2022-10-16T01:49:40;3.88;;;2.70;;
68176;SDS011;56478;50.982;7.032;2022-10-16T01:52:09;8.02;;;2.50;;
68176;SDS011;56478;50.982;7.032;2022-10-16T01:54:40;4.63;;;2.50;;
68176;SDS011;56478;50.982;7.032;2022-10-16T01:57:08;3.25;;;2.85;;
68176;SDS011;56478;50.982;7.032;2022-10-16T01:59:37;2.83;;;2.42;;
68176;SDS011;56478;50.982;7.032;2022-10-16T02:02:07;3.65;;;2.60;;
68176;SDS011;56478;50.982;7.032;2022-10-16T02:04:40;3.97;;;2.58;;
68176;SDS011;56478;50.982;7.032;2022-10-16T02:07:09;2.40;;;2.10;;
68176;SDS011;56478;50.982;7.032;2022-10-16T02:09:35;2.45;;;2.20;;
68176;SDS011;56478;50.982;7.032;2022-10-16T02:12:03;3.80;;;2.30;;
68176;SDS011;56478;50.982;7.032;2022-10-16T02:14:36;3.70;;;2.38;;
68176;SDS011;56478;50.982;7.032;2022-10-16T02:17:14;4.25;;;2.70;;
68176;SDS011;56478;50.982;7.032;2022-10-16T02:19:41;4.07;;;2.30;;
68176;SDS011;56478;50.982;7.032;2022-10-16T02:22:09;3.03;;;2.28;;
68176;SDS011;56478;50.982;7.032;2022-10-16T02:24:47;2.10;;;1.90;;
68176;SDS011;56478;50.982;7.032;2022-10-16T02:27:24;2.13;;;1.95;;
68176;SDS011;56478;50.982;7.032;2022-10-16T02:32:50;2.20;;;2.10;;
68176;SDS011;56478;50.982;7.032;2022-10-16T02:35:18;2.38;;;2.10;;
68176;SDS011;56478;50.982;7.032;2022-10-16T02:37:46;4.22;;;2.13;;
68176;SDS011;56478;50.982;7.032;2022-10-16T02:40:12;2.67;;;2.03;;
68176;SDS011;56478;50.982;7.032;2022-10-16T02:42:39;2.75;;;2.20;;
68176;SDS011;56478;50.982;7.032;2022-10-16T02:45:06;3.80;;;2.10;;
68176;SDS011;56478;50.982;7.032;2022-10-16T02:47:33;6.22;;;2.00;;
68176;SDS011;56478;50.982;7.032;2022-10-16T02:49:59;5.13;;;2.10;;
68176;SDS011;56478;50.982;7.032;2022-10-16T02:52:24;2.50;;;2.00;;
68176;SDS011;56478;50.982;7.032;2022-10-16T02:54:50;2.70;;;2.00;;
68176;SDS011;56478;50.982;7.032;2022-10-16T02:57:16;3.15;;;2.08;;
68176;SDS011;56478;50.982;7.032;2022-10-16T02:59:43;2.20;;;1.92;;
68176;SDS011;56478;50.982;7.032;2022-10-16T03:02:09;4.07;;;2.00;;
68176;SDS011;56478;50.982;7.032;2022-10-16T03:04:34;1.90;;;1.80;;
68176;SDS011;56478;50.982;7.032;2022-10-16T03:07:00;2.28;;;2.08;;
68176;SDS011;56478;50.982;7.032;2022-10-16T03:09:25;2.88;;;2.20;;
68176;SDS011;56478;50.982;7.032;2022-10-16T03:11:51;2.05;;;1.95;;
68176;SDS011;56478;50.982;7.032;2022-10-16T03:14:17;3.22;;;1.90;;
68176;SDS011;56478;50.982;7.032;2022-10-16T03:16:43;2.88;;;2.10;;
68176;SDS011;56478;50.982;7.032;2022-10-16T03:19:08;2.30;;;2.10;;
68176;SDS011;56478;50.982;7.032;2022-10-16T03:21:33;3.10;;;2.20;;
68176;SDS011;56478;50.982;7.032;2022-10-16T03:23:59;2.03;;;1.92;;
68176;SDS011;56478;50.982;7.032;2022-10-16T03:26:24;2.42;;;2.22;;
68176;SDS011;56478;50.982;7.032;2022-10-16T03:28:50;1.90;;;1.80;;
68176;SDS011;56478;50.982;7.032;2022-10-16T03:31:15;2.10;;;1.90;;
68176;SDS011;56478;50.982;7.032;2022-10-16T03:33:41;2.10;;;2.00;;
68176;SDS011;56478;50.982;7.032;2022-10-16T03:36:06;2.38;;;2.17;;
68176;SDS011;56478;50.982;7.032;2022-10-16T03:38:32;2.10;;;2.00;;
68176;SDS011;56478;50.982;7.032;2022-10-16T03:40:57;3.03;;;2.10;;
68176;SDS011;56478;50.982;7.032;2022-10-16T03:43:23;7.18;;;2.42;;
68176;SDS011;56478;50.982;7.032;2022-10-16T03:45:50;3.28;;;2.10;;
68176;SDS011;56478;50.982;7.032;2022-10-16T03:48:16;4.78;;;2.28;;
68176;SDS011;56478;50.982;7.032;2022-10-16T03:50:42;4.70;;;2.40;;
68176;SDS011;56478;50.982;7.032;2022-10-16T03:53:08;2.47;;;2.00;;
68176;SDS011;56478;50.982;7.032;2022-10-16T03:55:34;2.17;;;2.08;;
68176;SDS011;56478;50.982;7.032;2022-10-16T03:58:00;2.65;;;2.20;;
68176;SDS011;56478;50.982;7.032;2022-10-16T04:00:25;3.15;;;2.20;;
68176;SDS011;56478;50.982;7.032;2022-10-16T04:02:51;2.10;;;1.88;;
68176;SDS011;56478;50.982;7.032;2022-10-16T04:05:16;2.50;;;2.30;;
68176;SDS011;56478;50.982;7.032;2022-10-16T04:07:42;2.33;;;2.13;;
68176;SDS011;56478;50.982;7.032;2022-10-16T04:10:07;2.13;;;2.03;;
68176;SDS011;56478;50.982;7.032;2022-10-16T04:12:33;2.08;;;1.98;;
68176;SDS011;56478;50.982;7.032;2022-10-16T04:14:59;8.57;;;2.13;;
68176;SDS011;56478;50.982;7.032;2022-10-16T04:17:24;1.90;;;1.80;;
68176;SDS011;56478;50.982;7.032;2022-10-16T04:19:49;5.40;;;2.10;;
68176;SDS011;56478;50.982;7.032;2022-10-16T04:22:15;5.32;;;2.10;;
68176;SDS011;56478;50.982;7.032;2022-10-16T04:24:40;4.75;;;1.88;;
68176;SDS011;56478;50.982;7.032;2022-10-16T04:27:06;6.35;;;2.13;;
68176;SDS011;56478;50.982;7.032;2022-10-16T04:29:31;3.28;;;2.10;;
68176;SDS011;56478;50.982;7.032;2022-10-16T04:31:57;2.10;;;2.00;;
68176;SDS011;56478;50.982;7.032;2022-10-16T04:34:22;2.95;;;1.80;;
68176;SDS011;56478;50.982;7.032;2022-10-16T04:36:48;2.75;;;2.00;;
68176;SDS011;56478;50.982;7.032;2022-10-16T04:39:16;3.85;;;1.90;;
68176;SDS011;56478;50.982;7.032;2022-10-16T04:41:42;2.92;;;1.83;;
68176;SDS011;56478;50.982;7.032;2022-10-16T04:44:08;2.47;;;1.90;;
68176;SDS011;56478;50.982;7.032;2022-10-16T04:46:33;1.95;;;1.80;;
68176;SDS011;56478;50.982;7.032;2022-10-16T04:48:59;3.60;;;1.90;;
68176;SDS011;56478;50.982;7.032;2022-10-16T04:51:24;1.90;;;1.80;;
68176;SDS011;56478;50.982;7.032;2022-10-16T04:53:50;2.15;;;1.90;;
68176;SDS011;56478;50.982;7.032;2022-10-16T04:56:16;4.15;;;1.95;;
68176;SDS011;56478;50.982;7.032;2022-10-16T04:58:42;2.90;;;1.95;;
68176;SDS011;56478;50.982;7.032;2022-10-16T05:01:07;2.28;;;1.90;;
68176;SDS011;56478;50.982;7.032;2022-10-16T05:03:33;4.05;;;1.98;;
68176;SDS011;56478;50.982;7.032;2022-10-16T05:05:59;1.98;;;1.88;;
68176;SDS011;56478;50.982;7.032;2022-10-16T05:08:24;1.98;;;1.80;;
68176;SDS011;56478;50.982;7.032;2022-10-16T05:10:50;1.90;;;1.80;;
68176;SDS011;56478;50.982;7.032;2022-10-16T05:13:15;5.57;;;2.10;;
68176;SDS011;56478;50.982;7.032;2022-10-16T05:15:41;1.95;;;1.85;;
68176;SDS011;56478;50.982;7.032;2022-10-16T05:18:07;3.55;;;1.83;;
68176;SDS011;56478;50.982;7.032;2022-10-16T05:20:33;1.90;;;1.80;;
68176;SDS011;56478;50.982;7.032;2022-10-16T05:22:59;1.70;;;1.70;;
68176;SDS011;56478;50.982;7.032;2022-10-16T05:25:25;1.85;;;1.77;;
68176;SDS011;56478;50.982;7.032;2022-10-16T05:27:50;2.72;;;1.75;;
68176;SDS011;56478;50.982;7.032;2022-10-16T05:30:16;2.97;;;1.90;;
68176;SDS011;56478;50.982;7.032;2022-10-16T05:32:49;1.80;;;1.65;;
68176;SDS011;56478;50.982;7.032;2022-10-16T05:35:15;6.07;;;1.80;;
68176;SDS011;56478;50.982;7.032;2022-10-16T05:37:42;3.85;;;1.80;;
68176;SDS011;56478;50.982;7.032;2022-10-16T05:40:08;1.95;;;1.80;;
68176;SDS011;56478;50.982;7.032;2022-10-16T05:42:34;3.33;;;1.98;;
68176;SDS011;56478;50.982;7.032;2022-10-16T05:45:00;2.40;;;1.50;;
68176;SDS011;56478;50.982;7.032;2022-10-16T05:47:25;5.07;;;1.90;;
68176;SDS011;56478;50.982;7.032;2022-10-16T05:49:51;3.05;;;1.80;;
68176;SDS011;56478;50.982;7.032;2022-10-16T05:52:17;1.95;;;1.85;;
68176;SDS011;56478;50.982;7.032;2022-10-16T05:54:42;1.90;;;1.80;;
68176;SDS011;56478;50.982;7.032;2022-10-16T05:57:08;2.00;;;1.80;;
68176;SDS011;56478;50.982;7.032;2022-10-16T05:59:34;1.63;;;1.50;;
68176;SDS011;56478;50.982;7.032;2022-10-16T06:01:59;1.90;;;1.80;;
68176;SDS011;56478;50.982;7.032;2022-10-16T06:04:25;1.90;;;1.80;;
68176;SDS011;56478;50.982;7.032;2022-10-16T06:06:50;3.20;;;1.95;;
68176;SDS011;56478;50.982;7.032;2022-10-16T06:09:16;2.20;;;2.00;;
68176;SDS011;56478;50.982;7.032;2022-10-16T06:11:41;2.30;;;2.17;;
68176;SDS011;56478;50.982;7.032;2022-10-16T06:14:07;2.60;;;2.20;;
68176;SDS011;56478;50.982;7.032;2022-10-16T06:16:34;5.90;;;3.30;;
68176;SDS011;56478;50.982;7.032;2022-10-16T06:19:01;2.30;;;2.20;;
68176;SDS011;56478;50.982;7.032;2022-10-16T06:21:29;2.00;;;1.90;;
68176;SDS011;56478;50.982;7.032;2022-10-16T06:23:55;2.45;;;1.90;;
68176;SDS011;56478;50.982;7.032;2022-10-16T06:26:23;4.10;;;1.90;;
68176;SDS011;56478;50.982;7.032;2022-10-16T06:28:49;2.72;;;2.10;;
68176;SDS011;56478;50.982;7.032;2022-10-16T06:31:15;2.15;;;1.95;;
68176;SDS011;56478;50.982;7.032;2022-10-16T06:33:42;3.20;;;2.20;;
68176;SDS011;56478;50.982;7.032;2022-10-16T06:36:09;2.70;;;2.50;;
68176;SDS011;56478;50.982;7.032;2022-10-16T06:38:36;4.40;;;3.43;;
68176;SDS011;56478;50.982;7.032;2022-10-16T06:41:02;3.65;;;3.38;;
68176;SDS011;56478;50.982;7.032;2022-10-16T06:43:29;4.13;;;2.38;;
68176;SDS011;56478;50.982;7.032;2022-10-16T06:46:00;2.85;;;2.00;;
68176;SDS011;56478;50.982;7.032;2022-10-16T06:48:26;2.10;;;1.80;;
68176;SDS011;56478;50.982;7.032;2022-10-16T06:50:56;2.92;;;1.90;;
68176;SDS011;56478;50.982;7.032;2022-10-16T06:53:25;4.38;;;1.80;;
68176;SDS011;56478;50.982;7.032;2022-10-16T06:55:52;1.95;;;1.80;;
68176;SDS011;56478;50.982;7.032;2022-10-16T06:58:18;1.90;;;1.80;;
68176;SDS011;56478;50.982;7.032;2022-10-16T07:00:44;4.80;;;2.00;;
68176;SDS011;56478;50.982;7.032;2022-10-16T07:03:10;1.85;;;1.75;;
68176;SDS011;56478;50.982;7.032;2022-10-16T07:05:41;2.63;;;1.60;;
68176;SDS011;56478;50.982;7.032;2022-10-16T07:08:08;3.40;;;1.90;;
68176;SDS011;56478;50.982;7.032;2022-10-16T07:10:34;2.17;;;1.98;;
68176;SDS011;56478;50.982;7.032;2022-10-16T07:13:00;1.90;;;1.80;;
68176;SDS011;56478;50.982;7.032;2022-10-16T07:15:26;2.10;;;1.83;;
68176;SDS011;56478;50.982;7.032;2022-10-16T07:17:52;1.83;;;1.73;;
68176;SDS011;56478;50.982;7.032;2022-10-16T07:20:17;2.53;;;2.00;;
68176;SDS011;56478;50.982;7.032;2022-10-16T07:22:43;1.90;;;1.80;;
68176;SDS011;56478;50.982;7.032;2022-10-16T07:25:09;1.90;;;1.80;;
68176;SDS011;56478;50.982;7.032;2022-10-16T07:27:35;2.22;;;1.90;;
68176;SDS011;56478;50.982;7.032;2022-10-16T07:30:00;2.00;;;1.80;;
68176;SDS011;56478;50.982;7.032;2022-10-16T07:32:26;2.22;;;1.92;;
68176;SDS011;56478;50.982;7.032;2022-10-16T07:34:52;5.38;;;2.00;;
68176;SDS011;56478;50.982;7.032;2022-10-16T07:37:18;2.15;;;1.77;;
68176;SDS011;56478;50.982;7.032;2022-10-16T07:39:43;2.50;;;1.83;;
68176;SDS011;56478;50.982;7.032;2022-10-16T07:42:09;3.08;;;1.80;;
68176;SDS011;56478;50.982;7.032;2022-10-16T07:44:34;2.10;;;1.80;;
68176;SDS011;56478;50.982;7.032;2022-10-16T07:46:59;2.42;;;1.88;;
68176;SDS011;56478;50.982;7.032;2022-10-16T07:49:25;3.42;;;2.00;;
68176;SDS011;56478;50.982;7.032;2022-10-16T07:51:51;1.90;;;1.80;;
68176;SDS011;56478;50.982;7.032;2022-10-16T07:54:16;3.97;;;1.80;;
68176;SDS011;56478;50.982;7.032;2022-10-16T07:56:42;2.03;;;1.70;;
68176;SDS011;56478;50.982;7.032;2022-10-16T07:59:07;1.92;;;1.75;;
68176;SDS011;56478;50.982;7.032;2022-10-16T08:01:33;1.50;;;1.50;;
68176;SDS011;56478;50.982;7.032;2022-10-16T08:03:59;2.70;;;1.85;;
68176;SDS011;56478;50.982;7.032;2022-10-16T08:06:24;1.90;;;1.80;;
68176;SDS011;56478;50.982;7.032;2022-10-16T08:08:50;3.17;;;1.70;;
68176;SDS011;56478;50.982;7.032;2022-10-16T08:11:15;1.80;;;1.63;;
68176;SDS011;56478;50.982;7.032;2022-10-16T08:13:41;3.97;;;1.70;;
68176;SDS011;56478;50.982;7.032;2022-10-16T08:16:07;4.70;;;1.50;;
68176;SDS011;56478;50.982;7.032;2022-10-16T08:18:34;2.08;;;1.50;;
68176;SDS011;56478;50.982;7.032;2022-10-16T08:21:00;1.70;;;1.60;;
68176;SDS011;56478;50.982;7.032;2022-10-16T08:23:26;3.38;;;1.63;;
68176;SDS011;56478;50.982;7.032;2022-10-16T08:25:53;4.82;;;1.70;;
68176;SDS011;56478;50.982;7.032;2022-10-16T08:28:19;3.45;;;1.50;;
68176;SDS011;56478;50.982;7.032;2022-10-16T08:30:45;1.70;;;1.60;;
68176;SDS011;56478;50.982;7.032;2022-10-16T08:33:11;1.75;;;1.65;;
68176;SDS011;56478;50.982;7.032;2022-10-16T08:35:36;1.60;;;1.50;;
68176;SDS011;56478;50.982;7.032;2022-10-16T08:38:05;1.60;;;1.50;;
68176;SDS011;56478;50.982;7.032;2022-10-16T08:40:32;2.40;;;1.55;;
68176;SDS011;56478;50.982;7.032;2022-10-16T08:43:07;1.73;;;1.60;;
68176;SDS011;56478;50.982;7.032;2022-10-16T08:48:49;2.50;;;1.70;;
68176;SDS011;56478;50.982;7.032;2022-10-16T08:54:03;1.30;;;1.30;;
68176;SDS011;56478;50.982;7.032;2022-10-16T08:56:30;3.53;;;1.40;;
68176;SDS011;56478;50.982;7.032;2022-10-16T08:58:57;1.45;;;1.35;;
68176;SDS011;56478;50.982;7.032;2022-10-16T09:01:23;1.40;;;1.40;;
68176;SDS011;56478;50.982;7.032;2022-10-16T09:07:12;1.40;;;1.30;;
68176;SDS011;56478;50.982;7.032;2022-10-16T09:12:32;1.00;;;1.00;;
68176;SDS011;56478;50.982;7.032;2022-10-16T09:15:13;1.17;;;1.17;;
68176;SDS011;56478;50.982;7.032;2022-10-16T09:18:40;1.73;;;1.10;;
68176;SDS011;56478;50.982;7.032;2022-10-16T09:23:40;1.20;;;1.20;;
68176;SDS011;56478;50.982;7.032;2022-10-16T09:26:09;1.45;;;1.20;;
68176;SDS011;56478;50.982;7.032;2022-10-16T09:28:37;1.20;;;1.10;;
68176;SDS011;56478;50.982;7.032;2022-10-16T09:31:03;1.33;;;1.23;;
68176;SDS011;56478;50.982;7.032;2022-10-16T09:33:29;1.13;;;1.13;;
68176;SDS011;56478;50.982;7.032;2022-10-16T09:35:59;1.75;;;1.10;;
68176;SDS011;56478;50.982;7.032;2022-10-16T09:41:28;2.72;;;1.30;;
68176;SDS011;56478;50.982;7.032;2022-10-16T09:43:57;1.40;;;1.30;;
68176;SDS011;56478;50.982;7.032;2022-10-16T09:46:29;1.33;;;1.10;;
68176;SDS011;56478;50.982;7.032;2022-10-16T09:49:31;2.78;;;1.33;;
68176;SDS011;56478;50.982;7.032;2022-10-16T09:51:51;2.25;;;1.10;;
68176;SDS011;56478;50.982;7.032;2022-10-16T09:54:31;3.25;;;1.30;;
68176;SDS011;56478;50.982;7.032;2022-10-16T09:57:06;2.33;;;1.27;;
68176;SDS011;56478;50.982;7.032;2022-10-16T09:59:33;1.20;;;1.10;;
68176;SDS011;56478;50.982;7.032;2022-10-16T10:02:03;3.88;;;1.00;;
68176;SDS011;56478;50.982;7.032;2022-10-16T10:07:26;2.75;;;1.23;;
68176;SDS011;56478;50.982;7.032;2022-10-16T10:09:53;2.90;;;1.30;;
68176;SDS011;56478;50.982;7.032;2022-10-16T10:12:27;1.30;;;1.20;;
68176;SDS011;56478;50.982;7.032;2022-10-16T10:14:58;1.90;;;1.15;;
68176;SDS011;56478;50.982;7.032;2022-10-16T10:17:45;1.33;;;1.23;;
68176;SDS011;56478;50.982;7.032;2022-10-16T10:22:53;1.40;;;1.10;;
68176;SDS011;56478;50.982;7.032;2022-10-16T10:33:27;1.20;;;1.10;;
68176;SDS011;56478;50.982;7.032;2022-10-16T10:38:44;1.33;;;1.10;;
68176;SDS011;56478;50.982;7.032;2022-10-16T10:42:02;1.17;;;1.10;;
68176;SDS011;56478;50.982;7.032;2022-10-16T10:47:07;1.60;;;1.50;;
68176;SDS011;56478;50.982;7.032;2022-10-16T10:52:34;1.40;;;0.93;;
68176;SDS011;56478;50.982;7.032;2022-10-16T11:06:25;0.90;;;0.90;;
68176;SDS011;56478;50.982;7.032;2022-10-16T11:09:00;2.25;;;0.90;;
68176;SDS011;56478;50.982;7.032;2022-10-16T11:16:28;3.47;;;1.15;;
68176;SDS011;56478;50.982;7.032;2022-10-16T11:27:43;1.33;;;0.98;;
68176;SDS011;56478;50.982;7.032;2022-10-16T11:30:16;1.20;;;1.10;;
68176;SDS011;56478;50.982;7.032;2022-10-16T11:40:55;1.08;;;0.85;;
68176;SDS011;56478;50.982;7.032;2022-10-16T11:43:34;0.85;;;0.80;;
68176;SDS011;56478;50.982;7.032;2022-10-16T11:46:13;2.08;;;1.00;;
68176;SDS011;56478;50.982;7.032;2022-10-16T11:48:45;1.17;;;0.88;;
68176;SDS011;56478;50.982;7.032;2022-10-16T11:54:18;0.98;;;0.75;;
68176;SDS011;56478;50.982;7.032;2022-10-16T11:57:03;0.90;;;0.90;;
68176;SDS011;56478;50.982;7.032;2022-10-16T12:07:32;1.48;;;0.98;;
68176;SDS011;56478;50.982;7.032;2022-10-16T12:10:10;0.93;;;0.93;;
68176;SDS011;56478;50.982;7.032;2022-10-16T12:12:44;1.00;;;1.00;;
68176;SDS011;56478;50.982;7.032;2022-10-16T12:17:56;2.13;;;1.10;;
68176;SDS011;56478;50.982;7.032;2022-10-16T12:20:23;2.38;;;0.80;;
68176;SDS011;56478;50.982;7.032;2022-10-16T12:23:01;0.80;;;0.80;;
68176;SDS011;56478;50.982;7.032;2022-10-16T12:25:29;1.15;;;0.95;;
68176;SDS011;56478;50.982;7.032;2022-10-16T12:28:00;1.13;;;1.00;;
68176;SDS011;56478;50.982;7.032;2022-10-16T12:30:29;1.75;;;0.95;;
68176;SDS011;56478;50.982;7.032;2022-10-16T12:33:05;1.60;;;0.90;;
68176;SDS011;56478;50.982;7.032;2022-10-16T12:35:43;3.05;;;1.10;;
68176;SDS011;56478;50.982;7.032;2022-10-16T12:40:59;1.17;;;0.73;;
68176;SDS011;56478;50.982;7.032;2022-10-16T12:43:45;1.20;;;0.95;;
68176;SDS011;56478;50.982;7.032;2022-10-16T12:48:38;0.80;;;0.80;;
68176;SDS011;56478;50.982;7.032;2022-10-16T12:54:09;1.17;;;0.90;;
68176;SDS011;56478;50.982;7.032;2022-10-16T13:11:03;2.25;;;1.17;;
68176;SDS011;56478;50.982;7.032;2022-10-16T13:30:17;1.48;;;0.75;;
68176;SDS011;56478;50.982;7.032;2022-10-16T13:32:49;1.45;;;0.70;;
68176;SDS011;56478;50.982;7.032;2022-10-16T13:35:23;0.70;;;0.63;;
68176;SDS011;56478;50.982;7.032;2022-10-16T13:40:36;0.80;;;0.80;;
68176;SDS011;56478;50.982;7.032;2022-10-16T13:43:22;0.68;;;0.68;;
68176;SDS011;56478;50.982;7.032;2022-10-16T13:46:24;0.73;;;0.70;;
68176;SDS011;56478;50.982;7.032;2022-10-16T13:48:42;2.35;;;0.90;;
68176;SDS011;56478;50.982;7.032;2022-10-16T13:51:15;0.98;;;0.95;;
68176;SDS011;56478;50.982;7.032;2022-10-16T13:53:42;0.65;;;0.65;;
68176;SDS011;56478;50.982;7.032;2022-10-16T13:56:13;1.20;;;1.10;;
68176;SDS011;56478;50.982;7.032;2022-10-16T13:58:41;2.15;;;1.05;;
68176;SDS011;56478;50.982;7.032;2022-10-16T14:01:26;2.58;;;1.00;;
68176;SDS011;56478;50.982;7.032;2022-10-16T14:03:59;1.45;;;1.05;;
68176;SDS011;56478;50.982;7.032;2022-10-16T14:06:27;0.80;;;0.80;;
68176;SDS011;56478;50.982;7.032;2022-10-16T14:08:59;1.90;;;0.90;;
68176;SDS011;56478;50.982;7.032;2022-10-16T14:11:27;0.93;;;0.80;;
68176;SDS011;56478;50.982;7.032;2022-10-16T14:13:53;1.23;;;0.80;;
68176;SDS011;56478;50.982;7.032;2022-10-16T14:16:20;0.95;;;0.90;;
68176;SDS011;56478;50.982;7.032;2022-10-16T14:18:57;1.10;;;1.00;;
68176;SDS011;56478;50.982;7.032;2022-10-16T14:21:26;2.35;;;1.00;;
68176;SDS011;56478;50.982;7.032;2022-10-16T14:23:52;1.20;;;1.10;;
68176;SDS011;56478;50.982;7.032;2022-10-16T14:26:20;0.90;;;0.90;;
68176;SDS011;56478;50.982;7.032;2022-10-16T14:31:24;1.60;;;1.08;;
68176;SDS011;56478;50.982;7.032;2022-10-16T14:33:50;0.95;;;0.95;;
68176;SDS011;56478;50.982;7.032;2022-10-16T14:36:15;1.02;;;0.85;;
68176;SDS011;56478;50.982;7.032;2022-10-16T14:41:15;1.77;;;1.00;;
68176;SDS011;56478;50.982;7.032;2022-10-16T14:43:41;1.13;;;1.00;;
68176;SDS011;56478;50.982;7.032;2022-10-16T14:46:18;1.30;;;1.00;;
68176;SDS011;56478;50.982;7.032;2022-10-16T14:48:46;1.33;;;1.23;;
68176;SDS011;56478;50.982;7.032;2022-10-16T14:51:16;0.95;;;0.93;;
68176;SDS011;56478;50.982;7.032;2022-10-16T14:53:42;1.17;;;1.10;;
68176;SDS011;56478;50.982;7.032;2022-10-16T14:56:08;1.33;;;0.88;;
68176;SDS011;56478;50.982;7.032;2022-10-16T14:58:41;0.90;;;0.90;;
68176;SDS011;56478;50.982;7.032;2022-10-16T15:01:08;0.90;;;0.90;;
68176;SDS011;56478;50.982;7.032;2022-10-16T15:03:36;1.10;;;1.10;;
68176;SDS011;56478;50.982;7.032;2022-10-16T15:06:03;1.25;;;1.00;;
68176;SDS011;56478;50.982;7.032;2022-10-16T15:08:28;1.05;;;1.00;;
68176;SDS011;56478;50.982;7.032;2022-10-16T15:10:54;1.02;;;1.02;;
68176;SDS011;56478;50.982;7.032;2022-10-16T15:13:20;1.58;;;1.20;;
68176;SDS011;56478;50.982;7.032;2022-10-16T15:15:48;1.08;;;1.00;;
68176;SDS011;56478;50.982;7.032;2022-10-16T15:18:16;1.08;;;0.98;;
68176;SDS011;56478;50.982;7.032;2022-10-16T15:20:45;1.20;;;1.10;;
68176;SDS011;56478;50.982;7.032;2022-10-16T15:23:17;1.80;;;1.10;;
68176;SDS011;56478;50.982;7.032;2022-10-16T15:25:47;1.48;;;1.30;;
68176;SDS011;56478;50.982;7.032;2022-10-16T15:28:15;1.25;;;1.00;;
68176;SDS011;56478;50.982;7.032;2022-10-16T15:30:41;1.10;;;1.10;;
68176;SDS011;56478;50.982;7.032;2022-10-16T15:33:11;1.95;;;1.00;;
68176;SDS011;56478;50.982;7.032;2022-10-16T15:35:38;1.33;;;1.23;;
68176;SDS011;56478;50.982;7.032;2022-10-16T15:38:04;1.40;;;1.30;;
68176;SDS011;56478;50.982;7.032;2022-10-16T15:40:30;2.03;;;1.17;;
68176;SDS011;56478;50.982;7.032;2022-10-16T15:42:55;1.30;;;1.30;;
68176;SDS011;56478;50.982;7.032;2022-10-16T15:45:21;2.17;;;1.40;;
68176;SDS011;56478;50.982;7.032;2022-10-16T15:47:46;1.50;;;1.40;;
68176;SDS011;56478;50.982;7.032;2022-10-16T15:50:12;1.70;;;1.50;;
68176;SDS011;56478;50.982;7.032;2022-10-16T15:52:40;1.88;;;1.58;;
68176;SDS011;56478;50.982;7.032;2022-10-16T15:55:10;2.28;;;1.30;;
68176;SDS011;56478;50.982;7.032;2022-10-16T15:57:37;1.70;;;1.60;;
68176;SDS011;56478;50.982;7.032;2022-10-16T16:00:07;2.88;;;1.55;;
68176;SDS011;56478;50.982;7.032;2022-10-16T16:02:37;1.70;;;1.60;;
68176;SDS011;56478;50.982;7.032;2022-10-16T16:05:03;4.30;;;1.67;;
68176;SDS011;56478;50.982;7.032;2022-10-16T16:07:32;1.77;;;1.67;;
68176;SDS011;56478;50.982;7.032;2022-10-16T16:09:59;2.05;;;1.85;;
68176;SDS011;56478;50.982;7.032;2022-10-16T16:12:24;3.67;;;2.40;;
68176;SDS011;56478;50.982;7.032;2022-10-16T16:14:50;2.55;;;2.08;;
68176;SDS011;56478;50.982;7.032;2022-10-16T16:17:16;1.80;;;1.70;;
68176;SDS011;56478;50.982;7.032;2022-10-16T16:19:42;1.85;;;1.70;;
68176;SDS011;56478;50.982;7.032;2022-10-16T16:22:07;2.97;;;1.60;;
68176;SDS011;56478;50.982;7.032;2022-10-16T16:24:33;5.75;;;1.55;;
68176;SDS011;56478;50.982;7.032;2022-10-16T16:26:58;2.45;;;1.40;;
68176;SDS011;56478;50.982;7.032;2022-10-16T16:29:24;1.77;;;1.55;;
68176;SDS011;56478;50.982;7.032;2022-10-16T16:31:49;1.95;;;1.50;;
68176;SDS011;56478;50.982;7.032;2022-10-16T16:34:15;1.60;;;1.27;;
68176;SDS011;56478;50.982;7.032;2022-10-16T16:36:40;2.30;;;1.48;;
68176;SDS011;56478;50.982;7.032;2022-10-16T16:39:06;1.95;;;1.42;;
68176;SDS011;56478;50.982;7.032;2022-10-16T16:41:32;1.70;;;1.48;;
68176;SDS011;56478;50.982;7.032;2022-10-16T16:44:02;1.60;;;1.50;;
68176;SDS011;56478;50.982;7.032;2022-10-16T16:46:31;2.15;;;1.50;;
68176;SDS011;56478;50.982;7.032;2022-10-16T16:48:58;1.60;;;1.50;;
68176;SDS011;56478;50.982;7.032;2022-10-16T16:51:24;2.22;;;1.80;;
68176;SDS011;56478;50.982;7.032;2022-10-16T16:53:50;2.17;;;1.95;;
68176;SDS011;56478;50.982;7.032;2022-10-16T16:56:18;3.47;;;1.95;;
68176;SDS011;56478;50.982;7.032;2022-10-16T16:58:45;1.98;;;1.80;;
68176;SDS011;56478;50.982;7.032;2022-10-16T17:01:12;1.77;;;1.67;;
68176;SDS011;56478;50.982;7.032;2022-10-16T17:03:38;1.70;;;1.60;;
68176;SDS011;56478;50.982;7.032;2022-10-16T17:06:04;1.80;;;1.70;;
68176;SDS011;56478;50.982;7.032;2022-10-16T17:08:31;1.80;;;1.57;;
68176;SDS011;56478;50.982;7.032;2022-10-16T17:10:57;3.13;;;2.08;;
68176;SDS011;56478;50.982;7.032;2022-10-16T17:13:24;1.83;;;1.73;;
68176;SDS011;56478;50.982;7.032;2022-10-16T17:15:51;4.38;;;1.67;;
68176;SDS011;56478;50.982;7.032;2022-10-16T17:18:18;1.65;;;1.50;;
68176;SDS011;56478;50.982;7.032;2022-10-16T17:20:45;2.13;;;1.70;;
68176;SDS011;56478;50.982;7.032;2022-10-16T17:23:10;1.95;;;1.70;;
68176;SDS011;56478;50.982;7.032;2022-10-16T17:25:37;1.70;;;1.60;;
68176;SDS011;56478;50.982;7.032;2022-10-16T17:28:04;2.33;;;1.40;;
68176;SDS011;56478;50.982;7.032;2022-10-16T17:30:30;1.77;;;1.50;;